sensor_id;sensor_type;location;lat;lon;timestamp;pressure;altitude;pressure_sealevel;temperature;humidity
67517;BME280;68821;59.134;37.894;2023-08-21T00:00:03;100345.84;;;14.48;69.53
67517;BME280;68821;59.134;37.894;2023-08-21T00:02:30;100333.75;;;14.41;69.86
67517;BME280;68821;59.134;37.894;2023-08-21T00:04:56;100339.81;;;14.40;69.65
67517;BME280;68821;59.134;37.894;2023-08-21T00:07:23;100341.53;;;14.38;70.09
67517;BME280;68821;59.134;37.894;2023-08-21T00:09:49;100336.38;;;14.34;69.78
67517;BME280;68821;59.134;37.894;2023-08-21T00:12:16;100341.50;;;14.31;70.39
67517;BME280;68821;59.134;37.894;2023-08-21T00:14:42;100338.06;;;14.28;70.27
67517;BME280;68821;59.134;37.894;2023-08-21T00:17:08;100336.34;;;14.27;70.36
67517;BME280;68821;59.134;37.894;2023-08-21T00:19:34;100327.72;;;14.25;70.91
67517;BME280;68821;59.134;37.894;2023-08-21T00:22:00;100339.81;;;14.23;70.89
67517;BME280;68821;59.134;37.894;2023-08-21T00:24:27;100332.91;;;14.24;70.76
67517;BME280;68821;59.134;37.894;2023-08-21T00:26:53;100332.91;;;14.25;71.12
67517;BME280;68821;59.134;37.894;2023-08-21T00:29:19;100332.03;;;14.26;71.42
67517;BME280;68821;59.134;37.894;2023-08-21T00:31:45;100337.22;;;14.28;71.14
67517;BME280;68821;59.134;37.894;2023-08-21T00:34:11;100336.34;;;14.29;71.45
67517;BME280;68821;59.134;37.894;2023-08-21T00:36:37;100338.94;;;14.31;71.64
67517;BME280;68821;59.134;37.894;2023-08-21T00:39:03;100332.91;;;14.28;71.59
67517;BME280;68821;59.134;37.894;2023-08-21T00:41:29;100337.22;;;14.33;71.81
67517;BME280;68821;59.134;37.894;2023-08-21T00:43:55;100337.22;;;14.33;71.17
67517;BME280;68821;59.134;37.894;2023-08-21T00:46:21;100329.47;;;14.29;71.53
67517;BME280;68821;59.134;37.894;2023-08-21T00:48:48;100340.66;;;14.28;71.61
67517;BME280;68821;59.134;37.894;2023-08-21T00:51:14;100336.34;;;14.24;71.69
67517;BME280;68821;59.134;37.894;2023-08-21T00:53:42;100344.97;;;14.22;71.61
67517;BME280;68821;59.134;37.894;2023-08-21T00:56:08;100334.59;;;14.16;71.75
67517;BME280;68821;59.134;37.894;2023-08-21T00:58:35;100337.19;;;14.11;71.89
67517;BME280;68821;59.134;37.894;2023-08-21T01:01:01;100340.63;;;14.10;71.76
67517;BME280;68821;59.134;37.894;2023-08-21T01:03:28;100336.31;;;14.07;72.27
67517;BME280;68821;59.134;37.894;2023-08-21T01:05:54;100328.56;;;14.03;72.55
67517;BME280;68821;59.134;37.894;2023-08-21T01:11:14;100336.28;;;14.00;72.49
67517;BME280;68821;59.134;37.894;2023-08-21T01:14:09;100333.72;;;13.97;72.36
67517;BME280;68821;59.134;37.894;2023-08-21T01:16:39;100338.88;;;13.95;72.54
67517;BME280;68821;59.134;37.894;2023-08-21T01:19:21;100338.00;;;13.90;72.40
67517;BME280;68821;59.134;37.894;2023-08-21T01:21:50;100331.94;;;13.83;72.51
67517;BME280;68821;59.134;37.894;2023-08-21T01:24:19;100332.81;;;13.84;72.57
67517;BME280;68821;59.134;37.894;2023-08-21T01:26:45;100338.84;;;13.81;72.69
67517;BME280;68821;59.134;37.894;2023-08-21T01:29:11;100342.25;;;13.77;73.19
67517;BME280;68821;59.134;37.894;2023-08-21T01:31:39;100335.34;;;13.72;73.23
67517;BME280;68821;59.134;37.894;2023-08-21T01:34:11;100343.94;;;13.67;73.48
67517;BME280;68821;59.134;37.894;2023-08-21T01:36:39;100338.78;;;13.64;72.90
67517;BME280;68821;59.134;37.894;2023-08-21T01:39:06;100340.50;;;13.62;73.07
67517;BME280;68821;59.134;37.894;2023-08-21T01:41:32;100339.63;;;13.60;73.45
67517;BME280;68821;59.134;37.894;2023-08-21T01:43:58;100340.50;;;13.58;73.12
67517;BME280;68821;59.134;37.894;2023-08-21T01:46:24;100341.34;;;13.58;73.42
67517;BME280;68821;59.134;37.894;2023-08-21T01:48:50;100341.31;;;13.55;73.36
67517;BME280;68821;59.134;37.894;2023-08-21T01:51:16;100343.03;;;13.53;73.60
67517;BME280;68821;59.134;37.894;2023-08-21T01:53:42;100348.22;;;13.52;73.66
67517;BME280;68821;59.134;37.894;2023-08-21T01:56:08;100347.34;;;13.50;73.89
67517;BME280;68821;59.134;37.894;2023-08-21T01:58:34;100347.31;;;13.48;73.96
67517;BME280;68821;59.134;37.894;2023-08-21T02:01:00;100344.75;;;13.50;74.17
67517;BME280;68821;59.134;37.894;2023-08-21T02:03:26;100346.50;;;13.54;74.31
67517;BME280;68821;59.134;37.894;2023-08-21T02:05:55;100338.75;;;13.57;74.61
67517;BME280;68821;59.134;37.894;2023-08-21T02:08:30;100338.78;;;13.60;74.39
67517;BME280;68821;59.134;37.894;2023-08-21T02:10:56;100338.75;;;13.61;74.01
67517;BME280;68821;59.134;37.894;2023-08-21T02:13:22;100344.81;;;13.65;74.48
67517;BME280;68821;59.134;37.894;2023-08-21T02:15:48;100338.78;;;13.64;74.26
67517;BME280;68821;59.134;37.894;2023-08-21T02:18:14;100332.75;;;13.64;74.34
67517;BME280;68821;59.134;37.894;2023-08-21T02:20:40;100329.31;;;13.65;74.50
67517;BME280;68821;59.134;37.894;2023-08-21T02:23:07;100341.34;;;13.60;74.43
67517;BME280;68821;59.134;37.894;2023-08-21T02:25:33;100345.66;;;13.56;74.35
67517;BME280;68821;59.134;37.894;2023-08-21T02:27:59;100349.94;;;13.53;74.72
67517;BME280;68821;59.134;37.894;2023-08-21T02:30:26;100343.03;;;13.52;74.25
67517;BME280;68821;59.134;37.894;2023-08-21T02:32:53;100348.22;;;13.52;74.70
67517;BME280;68821;59.134;37.894;2023-08-21T02:35:20;100343.03;;;13.50;74.39
67517;BME280;68821;59.134;37.894;2023-08-21T02:37:46;100345.63;;;13.50;74.22
67517;BME280;68821;59.134;37.894;2023-08-21T02:40:12;100347.34;;;13.53;73.88
67517;BME280;68821;59.134;37.894;2023-08-21T02:42:38;100342.19;;;13.53;74.48
67517;BME280;68821;59.134;37.894;2023-08-21T02:45:04;100341.31;;;13.52;74.73
67517;BME280;68821;59.134;37.894;2023-08-21T02:47:37;100339.59;;;13.53;74.13
67517;BME280;68821;59.134;37.894;2023-08-21T02:50:05;100344.78;;;13.54;74.65
67517;BME280;68821;59.134;37.894;2023-08-21T02:52:32;100346.50;;;13.54;74.44
67517;BME280;68821;59.134;37.894;2023-08-21T02:54:58;100354.22;;;13.55;73.92
67517;BME280;68821;59.134;37.894;2023-08-21T02:57:25;100347.38;;;13.56;74.20
67517;BME280;68821;59.134;37.894;2023-08-21T02:59:52;100354.25;;;13.58;74.32
67517;BME280;68821;59.134;37.894;2023-08-21T03:02:18;100361.13;;;13.59;74.30
67517;BME280;68821;59.134;37.894;2023-08-21T03:04:45;100352.53;;;13.59;74.18
67517;BME280;68821;59.134;37.894;2023-08-21T03:07:11;100355.97;;;13.61;74.36
67517;BME280;68821;59.134;37.894;2023-08-21T03:09:37;100356.84;;;13.61;74.24
67517;BME280;68821;59.134;37.894;2023-08-21T03:12:03;100357.69;;;13.59;74.03
67517;BME280;68821;59.134;37.894;2023-08-21T03:14:29;100364.59;;;13.58;73.89
67517;BME280;68821;59.134;37.894;2023-08-21T03:16:55;100366.31;;;13.59;74.12
67517;BME280;68821;59.134;37.894;2023-08-21T03:19:22;100362.03;;;13.60;74.16
67517;BME280;68821;59.134;37.894;2023-08-21T03:21:48;100364.59;;;13.60;74.33
67517;BME280;68821;59.134;37.894;2023-08-21T03:24:14;100362.03;;;13.60;74.37
67517;BME280;68821;59.134;37.894;2023-08-21T03:26:40;100368.03;;;13.60;74.06
67517;BME280;68821;59.134;37.894;2023-08-21T03:29:06;100362.00;;;13.58;73.82
67517;BME280;68821;59.134;37.894;2023-08-21T03:31:33;100352.53;;;13.60;74.11
67517;BME280;68821;59.134;37.894;2023-08-21T03:33:59;100362.00;;;13.61;73.79
67517;BME280;68821;59.134;37.894;2023-08-21T03:36:25;100362.88;;;13.63;74.49
67517;BME280;68821;59.134;37.894;2023-08-21T03:39:01;100359.44;;;13.63;74.03
67517;BME280;68821;59.134;37.894;2023-08-21T03:41:30;100361.19;;;13.67;74.35
67517;BME280;68821;59.134;37.894;2023-08-21T03:43:56;100345.66;;;13.65;74.50
67517;BME280;68821;59.134;37.894;2023-08-21T03:46:22;100359.50;;;13.72;73.83
67517;BME280;68821;59.134;37.894;2023-08-21T03:48:48;100349.13;;;13.74;73.68
67517;BME280;68821;59.134;37.894;2023-08-21T03:51:14;100352.59;;;13.77;74.04
67517;BME280;68821;59.134;37.894;2023-08-21T03:53:40;100343.13;;;13.73;73.87
67517;BME280;68821;59.134;37.894;2023-08-21T03:56:06;100354.34;;;13.77;73.91
67517;BME280;68821;59.134;37.894;2023-08-21T03:58:32;100354.31;;;13.80;73.99
67517;BME280;68821;59.134;37.894;2023-08-21T04:00:58;100349.16;;;13.81;73.91
67517;BME280;68821;59.134;37.894;2023-08-21T04:03:24;100356.94;;;13.83;73.85
67517;BME280;68821;59.134;37.894;2023-08-21T04:05:53;100356.94;;;13.83;74.37
67517;BME280;68821;59.134;37.894;2023-08-21T04:08:20;100350.91;;;13.87;73.78
67517;BME280;68821;59.134;37.894;2023-08-21T04:10:46;100352.66;;;13.94;73.75
67517;BME280;68821;59.134;37.894;2023-08-21T04:13:12;100345.78;;;13.99;73.79
67517;BME280;68821;59.134;37.894;2023-08-21T04:15:38;100345.78;;;14.02;73.88
67517;BME280;68821;59.134;37.894;2023-08-21T04:18:04;100345.78;;;14.08;73.46
67517;BME280;68821;59.134;37.894;2023-08-21T04:20:30;100350.97;;;14.15;73.87
67517;BME280;68821;59.134;37.894;2023-08-21T04:22:56;100345.81;;;14.21;73.50
67517;BME280;68821;59.134;37.894;2023-08-21T04:25:23;100338.06;;;14.27;73.64
67517;BME280;68821;59.134;37.894;2023-08-21T04:27:49;100346.69;;;14.31;73.72
67517;BME280;68821;59.134;37.894;2023-08-21T04:30:15;100353.56;;;14.33;73.57
67517;BME280;68821;59.134;37.894;2023-08-21T04:32:41;100351.03;;;14.38;73.46
67517;BME280;68821;59.134;37.894;2023-08-21T04:35:07;100341.53;;;14.43;72.95
67517;BME280;68821;59.134;37.894;2023-08-21T04:37:34;100346.72;;;14.46;73.22
67517;BME280;68821;59.134;37.894;2023-08-21T04:40:00;100351.88;;;14.54;72.96
67517;BME280;68821;59.134;37.894;2023-08-21T04:42:29;100351.06;;;14.56;72.84
67517;BME280;68821;59.134;37.894;2023-08-21T04:44:55;100355.34;;;14.62;72.76
67517;BME280;68821;59.134;37.894;2023-08-21T04:47:23;100351.91;;;14.67;72.65
67517;BME280;68821;59.134;37.894;2023-08-21T04:49:50;100345.88;;;14.68;72.52
67517;BME280;68821;59.134;37.894;2023-08-21T04:52:16;100344.13;;;14.72;72.51
67517;BME280;68821;59.134;37.894;2023-08-21T04:54:42;100344.13;;;14.74;72.51
67517;BME280;68821;59.134;37.894;2023-08-21T04:57:09;100340.69;;;14.70;72.09
67517;BME280;68821;59.134;37.894;2023-08-21T04:59:35;100340.69;;;14.76;72.54
67517;BME280;68821;59.134;37.894;2023-08-21T05:02:02;100345.88;;;14.79;72.44
67517;BME280;68821;59.134;37.894;2023-08-21T05:04:29;100339.81;;;14.82;72.13
67517;BME280;68821;59.134;37.894;2023-08-21T05:06:55;100343.28;;;14.87;72.31
67517;BME280;68821;59.134;37.894;2023-08-21T05:09:21;100345.00;;;14.91;72.00
67517;BME280;68821;59.134;37.894;2023-08-21T05:11:47;100348.44;;;14.93;71.93
67517;BME280;68821;59.134;37.894;2023-08-21T05:14:13;100343.25;;;14.98;71.59
67517;BME280;68821;59.134;37.894;2023-08-21T05:16:39;100344.97;;;15.00;71.74
67517;BME280;68821;59.134;37.894;2023-08-21T05:19:05;100348.41;;;15.02;71.41
67517;BME280;68821;59.134;37.894;2023-08-21T05:21:31;100339.78;;;15.06;71.85
67517;BME280;68821;59.134;37.894;2023-08-21T05:23:58;100346.69;;;15.14;71.55
67517;BME280;68821;59.134;37.894;2023-08-21T05:26:24;100347.53;;;15.19;71.49
67517;BME280;68821;59.134;37.894;2023-08-21T05:28:50;100344.94;;;15.20;71.28
67517;BME280;68821;59.134;37.894;2023-08-21T05:31:16;100345.78;;;15.25;71.32
67517;BME280;68821;59.134;37.894;2023-08-21T05:33:42;100344.88;;;15.29;71.00
67517;BME280;68821;59.134;37.894;2023-08-21T05:36:08;100345.75;;;15.35;71.13
67517;BME280;68821;59.134;37.894;2023-08-21T05:38:34;100335.41;;;15.35;71.09
67517;BME280;68821;59.134;37.894;2023-08-21T05:41:00;100340.53;;;15.47;71.34
67517;BME280;68821;59.134;37.894;2023-08-21T05:43:26;100343.09;;;15.53;70.71
67517;BME280;68821;59.134;37.894;2023-08-21T05:45:52;100343.94;;;15.60;70.81
67517;BME280;68821;59.134;37.894;2023-08-21T05:48:18;100333.56;;;15.61;70.72
67517;BME280;68821;59.134;37.894;2023-08-21T05:50:44;100337.88;;;15.73;70.45
67517;BME280;68821;59.134;37.894;2023-08-21T05:53:10;100335.22;;;15.82;70.40
67517;BME280;68821;59.134;37.894;2023-08-21T05:55:37;100342.91;;;15.93;70.28
67517;BME280;68821;59.134;37.894;2023-08-21T05:58:03;100339.44;;;16.00;70.00
67517;BME280;68821;59.134;37.894;2023-08-21T06:00:29;100325.53;;;16.07;69.76
67517;BME280;68821;59.134;37.894;2023-08-21T06:02:55;100336.72;;;16.17;69.68
67517;BME280;68821;59.134;37.894;2023-08-21T06:05:21;100337.53;;;16.27;69.68
67517;BME280;68821;59.134;37.894;2023-08-21T06:07:47;100334.00;;;16.34;69.33
67517;BME280;68821;59.134;37.894;2023-08-21T06:10:13;100329.66;;;16.39;69.41
67517;BME280;68821;59.134;37.894;2023-08-21T06:12:40;100337.41;;;16.45;69.21
67517;BME280;68821;59.134;37.894;2023-08-21T06:15:07;100330.41;;;16.52;69.00
67517;BME280;68821;59.134;37.894;2023-08-21T06:17:35;100326.06;;;16.56;68.51
67517;BME280;68821;59.134;37.894;2023-08-21T06:20:01;100324.31;;;16.55;68.45
67517;BME280;68821;59.134;37.894;2023-08-21T06:22:28;100338.09;;;16.67;68.29
67517;BME280;68821;59.134;37.894;2023-08-21T06:24:54;100330.25;;;16.74;67.97
67517;BME280;68821;59.134;37.894;2023-08-21T06:27:20;100336.22;;;16.86;67.76
67517;BME280;68821;59.134;37.894;2023-08-21T06:29:46;100324.00;;;16.93;67.68
67517;BME280;68821;59.134;37.894;2023-08-21T06:32:12;100323.09;;;17.00;67.23
67517;BME280;68821;59.134;37.894;2023-08-21T06:34:39;100328.22;;;17.05;67.32
67517;BME280;68821;59.134;37.894;2023-08-21T06:37:05;100323.03;;;17.05;67.40
67517;BME280;68821;59.134;37.894;2023-08-21T06:39:31;100322.13;;;17.09;67.10
67517;BME280;68821;59.134;37.894;2023-08-21T06:41:57;100320.38;;;17.11;66.74
67517;BME280;68821;59.134;37.894;2023-08-21T06:44:23;100327.25;;;17.15;66.70
67517;BME280;68821;59.134;37.894;2023-08-21T06:46:49;100318.53;;;17.19;66.26
67517;BME280;68821;59.134;37.894;2023-08-21T06:49:15;100321.03;;;17.28;66.24
67517;BME280;68821;59.134;37.894;2023-08-21T06:51:42;100321.78;;;17.37;65.92
67517;BME280;68821;59.134;37.894;2023-08-21T06:54:08;100323.41;;;17.47;65.93
67517;BME280;68821;59.134;37.894;2023-08-21T06:56:34;100321.56;;;17.55;65.49
67517;BME280;68821;59.134;37.894;2023-08-21T06:59:00;100318.88;;;17.64;64.88
67517;BME280;68821;59.134;37.894;2023-08-21T07:01:26;100320.53;;;17.70;65.09
67517;BME280;68821;59.134;37.894;2023-08-21T07:03:52;100316.94;;;17.79;64.82
67517;BME280;68821;59.134;37.894;2023-08-21T07:06:18;100315.94;;;17.91;64.49
67517;BME280;68821;59.134;37.894;2023-08-21T07:08:44;100314.88;;;18.04;64.24
67517;BME280;68821;59.134;37.894;2023-08-21T07:11:10;100313.03;;;18.10;64.02
67517;BME280;68821;59.134;37.894;2023-08-21T07:13:38;100314.66;;;18.19;63.44
67517;BME280;68821;59.134;37.894;2023-08-21T07:16:05;100314.47;;;18.30;63.08
67517;BME280;68821;59.134;37.894;2023-08-21T07:18:33;100311.59;;;18.47;63.11
67517;BME280;68821;59.134;37.894;2023-08-21T07:21:00;100314.00;;;18.59;62.65
67517;BME280;68821;59.134;37.894;2023-08-21T07:23:27;100313.84;;;18.68;62.27
67517;BME280;68821;59.134;37.894;2023-08-21T07:25:53;100313.69;;;18.79;62.09
67517;BME280;68821;59.134;37.894;2023-08-21T07:28:19;100320.31;;;18.96;61.46
67517;BME280;68821;59.134;37.894;2023-08-21T07:30:45;100316.59;;;19.09;60.96
67517;BME280;68821;59.134;37.894;2023-08-21T07:33:11;100314.63;;;19.22;60.78
67517;BME280;68821;59.134;37.894;2023-08-21T07:35:37;100310.81;;;19.38;60.37
67517;BME280;68821;59.134;37.894;2023-08-21T07:38:03;100307.84;;;19.55;59.94
67517;BME280;68821;59.134;37.894;2023-08-21T07:40:30;100304.94;;;19.70;59.57
67517;BME280;68821;59.134;37.894;2023-08-21T07:42:55;100309.78;;;19.87;58.86
67517;BME280;68821;59.134;37.894;2023-08-21T07:45:21;100303.31;;;20.04;58.23
67517;BME280;68821;59.134;37.894;2023-08-21T07:47:48;100309.81;;;20.23;57.84
67517;BME280;68821;59.134;37.894;2023-08-21T07:50:13;100303.16;;;20.46;57.45
67517;BME280;68821;59.134;37.894;2023-08-21T07:52:42;100301.09;;;20.60;57.09
67517;BME280;68821;59.134;37.894;2023-08-21T07:55:08;100300.59;;;20.80;56.61
67517;BME280;68821;59.134;37.894;2023-08-21T07:57:34;100298.44;;;20.95;56.28
67517;BME280;68821;59.134;37.894;2023-08-21T08:00:00;100301.69;;;21.04;55.68
67517;BME280;68821;59.134;37.894;2023-08-21T08:02:26;100299.75;;;21.11;55.25
67517;BME280;68821;59.134;37.894;2023-08-21T08:04:52;100277.88;;;21.14;55.58
67517;BME280;68821;59.134;37.894;2023-08-21T08:07:19;100296.59;;;21.29;54.86
67517;BME280;68821;59.134;37.894;2023-08-21T08:09:45;100296.41;;;21.37;54.94
67517;BME280;68821;59.134;37.894;2023-08-21T08:12:12;100292.63;;;21.47;55.02
67517;BME280;68821;59.134;37.894;2023-08-21T08:14:38;100298.63;;;21.51;54.51
67517;BME280;68821;59.134;37.894;2023-08-21T08:17:04;100274.78;;;21.30;54.17
67517;BME280;68821;59.134;37.894;2023-08-21T08:19:30;100282.16;;;21.16;54.12
67517;BME280;68821;59.134;37.894;2023-08-21T08:21:56;100277.34;;;21.02;54.01
67517;BME280;68821;59.134;37.894;2023-08-21T08:24:23;100265.47;;;20.90;54.10
67517;BME280;68821;59.134;37.894;2023-08-21T08:26:49;100274.09;;;20.94;54.46
67517;BME280;68821;59.134;37.894;2023-08-21T08:29:15;100266.88;;;21.02;54.37
67517;BME280;68821;59.134;37.894;2023-08-21T08:31:41;100272.22;;;20.98;54.36
67517;BME280;68821;59.134;37.894;2023-08-21T08:34:07;100272.34;;;20.93;53.94
67517;BME280;68821;59.134;37.894;2023-08-21T08:36:35;100272.78;;;20.78;54.15
67517;BME280;68821;59.134;37.894;2023-08-21T08:39:01;100267.28;;;20.53;54.45
67517;BME280;68821;59.134;37.894;2023-08-21T08:41:41;100261.81;;;20.29;54.74
67517;BME280;68821;59.134;37.894;2023-08-21T08:44:10;100259.41;;;20.21;55.11
67517;BME280;68821;59.134;37.894;2023-08-21T08:46:38;100254.97;;;20.25;55.63
67517;BME280;68821;59.134;37.894;2023-08-21T08:49:04;100243.56;;;20.27;54.69
67517;BME280;68821;59.134;37.894;2023-08-21T08:51:31;100246.03;;;20.34;54.65
67517;BME280;68821;59.134;37.894;2023-08-21T08:54:00;100248.59;;;20.35;54.39
67517;BME280;68821;59.134;37.894;2023-08-21T08:56:26;100249.41;;;20.39;54.30
67517;BME280;68821;59.134;37.894;2023-08-21T08:58:52;100243.34;;;20.37;53.79
67517;BME280;68821;59.134;37.894;2023-08-21T09:01:19;100245.81;;;20.43;54.18
67517;BME280;68821;59.134;37.894;2023-08-21T09:03:45;100236.25;;;20.42;54.09
67517;BME280;68821;59.134;37.894;2023-08-21T09:06:11;100244.06;;;20.43;54.76
67517;BME280;68821;59.134;37.894;2023-08-21T09:08:53;100243.13;;;20.44;54.73
67517;BME280;68821;59.134;37.894;2023-08-21T09:11:19;100241.34;;;20.46;54.56
67517;BME280;68821;59.134;37.894;2023-08-21T09:13:51;100236.06;;;20.49;53.75
67517;BME280;68821;59.134;37.894;2023-08-21T09:16:18;100234.09;;;20.59;52.44
67517;BME280;68821;59.134;37.894;2023-08-21T09:18:52;100234.66;;;20.70;50.93
67517;BME280;68821;59.134;37.894;2023-08-21T09:21:19;100232.81;;;20.74;50.37
67517;BME280;68821;59.134;37.894;2023-08-21T09:23:46;100229.03;;;20.84;49.85
67517;BME280;68821;59.134;37.894;2023-08-21T09:26:20;100223.44;;;20.98;50.02
67517;BME280;68821;59.134;37.894;2023-08-21T09:28:48;100227.44;;;21.10;49.94
67517;BME280;68821;59.134;37.894;2023-08-21T09:31:15;100236.88;;;21.16;50.42
67517;BME280;68821;59.134;37.894;2023-08-21T09:33:41;100229.75;;;21.21;50.42
67517;BME280;68821;59.134;37.894;2023-08-21T09:36:09;100210.81;;;21.42;50.66
67517;BME280;68821;59.134;37.894;2023-08-21T09:38:39;100217.53;;;21.79;49.43
67517;BME280;68821;59.134;37.894;2023-08-21T09:41:06;100216.22;;;22.19;48.74
67517;BME280;68821;59.134;37.894;2023-08-21T09:43:41;100215.03;;;22.55;47.85
67517;BME280;68821;59.134;37.894;2023-08-21T09:46:08;100214.41;;;22.48;47.66
67517;BME280;68821;59.134;37.894;2023-08-21T09:48:35;100210.44;;;22.36;47.73
67517;BME280;68821;59.134;37.894;2023-08-21T09:51:03;100215.41;;;22.69;47.92
67517;BME280;68821;59.134;37.894;2023-08-21T09:53:30;100203.78;;;23.69;46.86
67517;BME280;68821;59.134;37.894;2023-08-21T09:55:56;100200.75;;;25.01;44.84
67517;BME280;68821;59.134;37.894;2023-08-21T09:58:22;100199.22;;;25.91;44.08
67517;BME280;68821;59.134;37.894;2023-08-21T10:00:49;100194.28;;;27.51;42.21
67517;BME280;68821;59.134;37.894;2023-08-21T10:03:20;100194.78;;;29.06;39.53
67517;BME280;68821;59.134;37.894;2023-08-21T10:05:47;100196.50;;;30.28;38.41
67517;BME280;68821;59.134;37.894;2023-08-21T10:08:15;100187.31;;;31.71;36.40
67517;BME280;68821;59.134;37.894;2023-08-21T10:10:42;100190.63;;;32.90;35.72
67517;BME280;68821;59.134;37.894;2023-08-21T10:13:08;100195.16;;;33.98;33.48
67517;BME280;68821;59.134;37.894;2023-08-21T10:15:36;100185.13;;;34.84;32.06
67517;BME280;68821;59.134;37.894;2023-08-21T10:18:19;100179.78;;;35.63;30.03
67517;BME280;68821;59.134;37.894;2023-08-21T10:20:46;100188.22;;;36.27;29.88
67517;BME280;68821;59.134;37.894;2023-08-21T10:23:24;100175.44;;;35.53;28.80
67517;BME280;68821;59.134;37.894;2023-08-21T10:25:58;100177.69;;;34.57;29.41
67517;BME280;68821;59.134;37.894;2023-08-21T10:28:24;100172.91;;;33.87;29.54
67517;BME280;68821;59.134;37.894;2023-08-21T10:30:50;100174.88;;;32.98;30.15
67517;BME280;68821;59.134;37.894;2023-08-21T10:33:17;100164.94;;;31.97;30.52
67517;BME280;68821;59.134;37.894;2023-08-21T10:35:45;100165.41;;;32.26;30.91
67517;BME280;68821;59.134;37.894;2023-08-21T10:38:16;100155.41;;;32.64;30.22
67517;BME280;68821;59.134;37.894;2023-08-21T10:41:05;100158.88;;;31.84;30.39
67517;BME280;68821;59.134;37.894;2023-08-21T10:43:39;100154.09;;;30.54;31.87
67517;BME280;68821;59.134;37.894;2023-08-21T10:46:06;100159.09;;;29.53;32.91
67517;BME280;68821;59.134;37.894;2023-08-21T10:48:33;100153.94;;;28.38;32.76
67517;BME280;68821;59.134;37.894;2023-08-21T10:51:04;100152.91;;;27.20;33.11
67517;BME280;68821;59.134;37.894;2023-08-21T10:53:31;100155.97;;;26.12;34.26
67517;BME280;68821;59.134;37.894;2023-08-21T10:56:01;100152.94;;;25.31;35.23
67517;BME280;68821;59.134;37.894;2023-08-21T10:58:28;100155.66;;;24.71;35.77
67517;BME280;68821;59.134;37.894;2023-08-21T11:00:58;100150.97;;;24.18;34.85
67517;BME280;68821;59.134;37.894;2023-08-21T11:03:25;100147.59;;;23.73;35.94
67517;BME280;68821;59.134;37.894;2023-08-21T11:06:02;100149.34;;;23.30;36.78
67517;BME280;68821;59.134;37.894;2023-08-21T11:08:29;100143.47;;;23.01;37.41
67517;BME280;68821;59.134;37.894;2023-08-21T11:10:55;100137.72;;;22.90;38.73
67517;BME280;68821;59.134;37.894;2023-08-21T11:13:24;100133.19;;;22.95;38.87
67517;BME280;68821;59.134;37.894;2023-08-21T11:15:58;100131.34;;;22.97;39.15
67517;BME280;68821;59.134;37.894;2023-08-21T11:21:23;100124.22;;;22.77;40.29
67517;BME280;68821;59.134;37.894;2023-08-21T11:23:51;100119.06;;;23.43;40.71
67517;BME280;68821;59.134;37.894;2023-08-21T11:26:17;100112.06;;;24.86;39.32
67517;BME280;68821;59.134;37.894;2023-08-21T11:28:44;100121.19;;;26.39;38.44
67517;BME280;68821;59.134;37.894;2023-08-21T11:31:10;100110.25;;;28.33;36.31
67517;BME280;68821;59.134;37.894;2023-08-21T11:33:37;100122.34;;;30.01;34.43
67517;BME280;68821;59.134;37.894;2023-08-21T11:36:04;100116.69;;;30.70;32.95
67517;BME280;68821;59.134;37.894;2023-08-21T11:38:30;100115.91;;;30.44;32.04
67517;BME280;68821;59.134;37.894;2023-08-21T11:41:01;100113.88;;;29.56;32.61
67517;BME280;68821;59.134;37.894;2023-08-21T11:43:39;100119.50;;;28.54;31.70
67517;BME280;68821;59.134;37.894;2023-08-21T11:46:06;100112.09;;;27.87;33.06
67517;BME280;68821;59.134;37.894;2023-08-21T11:48:34;100106.06;;;27.39;33.08
67517;BME280;68821;59.134;37.894;2023-08-21T11:51:01;100106.84;;;27.09;33.07
67517;BME280;68821;59.134;37.894;2023-08-21T11:53:34;100103.25;;;26.95;33.59
67517;BME280;68821;59.134;37.894;2023-08-21T11:56:02;100098.81;;;27.11;33.89
67517;BME280;68821;59.134;37.894;2023-08-21T11:58:29;100097.81;;;27.14;34.19
67517;BME280;68821;59.134;37.894;2023-08-21T12:01:04;100090.91;;;26.63;33.76
67517;BME280;68821;59.134;37.894;2023-08-21T12:03:36;100096.59;;;25.87;34.65
67517;BME280;68821;59.134;37.894;2023-08-21T12:06:11;100089.47;;;25.37;35.60
67517;BME280;68821;59.134;37.894;2023-08-21T12:08:38;100092.78;;;25.04;35.67
67517;BME280;68821;59.134;37.894;2023-08-21T12:11:05;100093.00;;;24.81;36.10
67517;BME280;68821;59.134;37.894;2023-08-21T12:13:32;100082.00;;;24.73;36.37
67517;BME280;68821;59.134;37.894;2023-08-21T12:15:58;100085.13;;;24.81;36.42
67517;BME280;68821;59.134;37.894;2023-08-21T12:18:24;100080.84;;;24.97;36.58
67517;BME280;68821;59.134;37.894;2023-08-21T12:20:50;100070.75;;;25.07;36.37
67517;BME280;68821;59.134;37.894;2023-08-21T12:23:16;100068.94;;;25.26;36.25
67517;BME280;68821;59.134;37.894;2023-08-21T12:25:43;100074.28;;;25.42;35.92
67517;BME280;68821;59.134;37.894;2023-08-21T12:28:09;100070.75;;;25.43;35.95
67517;BME280;68821;59.134;37.894;2023-08-21T12:30:35;100067.03;;;25.47;35.61
67517;BME280;68821;59.134;37.894;2023-08-21T12:33:01;100067.41;;;25.57;34.40
67517;BME280;68821;59.134;37.894;2023-08-21T12:35:27;100068.91;;;25.45;34.71
67517;BME280;68821;59.134;37.894;2023-08-21T12:37:57;100066.56;;;25.20;33.80
67517;BME280;68821;59.134;37.894;2023-08-21T12:40:24;100065.97;;;25.15;33.47
67517;BME280;68821;59.134;37.894;2023-08-21T12:42:50;100058.59;;;25.04;33.68
67517;BME280;68821;59.134;37.894;2023-08-21T12:45:16;100054.56;;;24.78;34.19